Time;durP1;ratioP1;P1;durP2;ratioP2;P2;SDS_P1;SDS_P2;PMS_P1;PMS_P2;Temp;Humidity;BMP_temperature;BMP_pressure;BME280_temperature;BME280_humidity;BME280_pressure;Samples;Min_cycle;Max_cycle;Signal;HPM_P1;HPM_P2
2023/10/16 00:01:18;;;;;;;3.72;1.20;;;;;;;;;;5040513;28;20069;-81
2023/10/16 00:03:43;;;;;;;2.30;1.08;;;;;;;;;;5035020;28;20056;-81
2023/10/16 00:06:12;;;;;;;2.85;1.20;;;;;;;;;;5031089;28;20034;-81
2023/10/16 00:08:48;;;;;;;2.00;1.10;;;;;;;;;;5030315;28;20076;-82
2023/10/16 00:11:23;;;;;;;3.47;1.10;;;;;;;;;;5021680;28;20084;-81
2023/10/16 00:13:50;;;;;;;1.95;1.02;;;;;;;;;;5016059;28;20057;-81
2023/10/16 00:16:17;;;;;;;1.60;0.90;;;;;;;;;;5031053;28;20026;-80
2023/10/16 00:18:45;;;;;;;1.80;1.00;;;;;;;;;;5031726;28;20072;-81
2023/10/16 00:21:13;;;;;;;2.70;1.10;;;;;;;;;;5039520;28;20060;-81
2023/10/16 00:23:39;;;;;;;3.00;1.00;;;;;;;;;;5034211;28;20060;-81
2023/10/16 00:26:19;;;;;;;2.72;1.05;;;;;;;;;;5032037;28;20040;-81
2023/10/16 00:28:52;;;;;;;2.45;1.13;;;;;;;;;;5026327;28;20061;-81
2023/10/16 00:31:21;;;;;;;1.67;1.00;;;;;;;;;;5040933;28;20037;-81
2023/10/16 00:33:53;;;;;;;2.08;1.08;;;;;;;;;;5034772;28;20467;-81
2023/10/16 00:36:20;;;;;;;1.58;0.85;;;;;;;;;;5026483;28;20034;-81
2023/10/16 00:38:51;;;;;;;2.90;1.10;;;;;;;;;;5025685;28;20045;-81
2023/10/16 00:41:17;;;;;;;3.25;1.10;;;;;;;;;;5037525;28;20377;-82
2023/10/16 00:43:45;;;;;;;4.97;1.05;;;;;;;;;;5017155;28;20037;-81
2023/10/16 00:46:30;;;;;;;1.60;0.90;;;;;;;;;;5030730;28;20035;-81
2023/10/16 00:48:56;;;;;;;3.17;1.10;;;;;;;;;;5025127;28;20033;-81
2023/10/16 00:51:22;;;;;;;4.13;1.10;;;;;;;;;;5017877;28;20037;-81
2023/10/16 00:53:48;;;;;;;2.70;1.10;;;;;;;;;;5033463;28;20040;-81
2023/10/16 00:56:14;;;;;;;2.70;1.10;;;;;;;;;;5029345;28;20646;-81
2023/10/16 00:58:42;;;;;;;1.92;0.93;;;;;;;;;;5030876;28;20048;-81
2023/10/16 01:01:12;;;;;;;3.28;1.00;;;;;;;;;;5031328;28;20030;-81
2023/10/16 01:03:40;;;;;;;2.78;1.10;;;;;;;;;;5040153;28;20042;-81
2023/10/16 01:06:15;;;;;;;5.03;1.00;;;;;;;;;;5036263;28;20045;-81
2023/10/16 01:08:46;;;;;;;5.45;0.82;;;;;;;;;;5030214;28;20060;-81
2023/10/16 01:11:14;;;;;;;1.90;1.10;;;;;;;;;;5032736;28;20048;-81
2023/10/16 01:13:41;;;;;;;1.55;1.00;;;;;;;;;;5043234;28;20038;-81
2023/10/16 01:16:09;;;;;;;3.85;1.17;;;;;;;;;;5037617;28;20080;-81
2023/10/16 01:18:35;;;;;;;1.98;1.10;;;;;;;;;;5032886;28;20053;-81
2023/10/16 01:21:05;;;;;;;2.63;1.10;;;;;;;;;;5029311;28;20037;-81
2023/10/16 01:23:34;;;;;;;2.17;1.00;;;;;;;;;;5036380;28;20039;-81
2023/10/16 01:26:00;;;;;;;1.88;1.00;;;;;;;;;;5038870;28;20033;-81
2023/10/16 01:28:27;;;;;;;2.95;1.13;;;;;;;;;;5032039;28;20046;-81
2023/10/16 01:30:53;;;;;;;2.50;1.20;;;;;;;;;;5029648;28;20042;-81
2023/10/16 01:33:19;;;;;;;1.58;0.88;;;;;;;;;;5039776;28;20119;-81
2023/10/16 01:35:46;;;;;;;1.67;1.00;;;;;;;;;;5040285;28;20029;-81
2023/10/16 01:38:15;;;;;;;1.77;0.85;;;;;;;;;;5036174;28;20030;-80
2023/10/16 01:40:47;;;;;;;1.85;1.02;;;;;;;;;;5030374;28;20038;-81
2023/10/16 01:43:16;;;;;;;2.08;0.80;;;;;;;;;;5036728;28;20044;-81
2023/10/16 01:45:49;;;;;;;3.25;0.95;;;;;;;;;;5041922;28;20034;-80
2023/10/16 01:48:19;;;;;;;;;;;;;;;;;;5037305;28;20033;-80
2023/10/16 01:50:49;;;;;;;1.70;0.80;;;;;;;;;;5032257;28;19913;-81
2023/10/16 01:53:20;;;;;;;1.48;1.00;;;;;;;;;;5032799;28;20033;-81
2023/10/16 01:55:51;;;;;;;1.38;0.80;;;;;;;;;;5043305;28;20044;-81
2023/10/16 01:58:17;;;;;;;2.13;1.00;;;;;;;;;;5031942;28;20068;-81
2023/10/16 02:00:45;;;;;;;2.30;0.80;;;;;;;;;;5033598;28;20030;-81
2023/10/16 02:03:11;;;;;;;2.30;1.00;;;;;;;;;;4994329;28;20034;-81
2023/10/16 02:05:41;;;;;;;2.97;1.10;;;;;;;;;;5043997;28;20037;-81
2023/10/16 02:08:07;;;;;;;1.80;1.10;;;;;;;;;;5019684;28;20038;-81
2023/10/16 02:10:32;;;;;;;1.65;0.90;;;;;;;;;;5033557;28;20037;-81
2023/10/16 02:12:58;;;;;;;5.88;1.15;;;;;;;;;;5028056;28;20042;-80
2023/10/16 02:15:24;;;;;;;1.50;0.88;;;;;;;;;;5042983;28;20029;-81
2023/10/16 02:17:49;;;;;;;6.13;1.00;;;;;;;;;;5039840;28;20053;-81
2023/10/16 02:20:16;;;;;;;2.08;0.80;;;;;;;;;;5034272;28;20157;-81
2023/10/16 02:22:43;;;;;;;3.92;0.90;;;;;;;;;;5029819;28;20117;-81
2023/10/16 02:25:09;;;;;;;1.73;1.00;;;;;;;;;;5039671;28;20116;-81
2023/10/16 02:27:35;;;;;;;3.15;1.00;;;;;;;;;;5040353;28;20045;-81
2023/10/16 02:35:50;;;;;;;2.13;0.80;;;;;;;;;;5033744;28;20045;-81
2023/10/16 02:38:27;;;;;;;2.10;0.98;;;;;;;;;;5038014;28;20065;-80
2023/10/16 02:40:54;;;;;;;2.78;0.90;;;;;;;;;;5032234;28;20117;-81
2023/10/16 02:43:20;;;;;;;2.80;1.23;;;;;;;;;;5030700;28;20033;-81
2023/10/16 02:45:51;;;;;;;2.25;0.95;;;;;;;;;;5036633;28;20029;-81
2023/10/16 02:48:17;;;;;;;2.58;0.93;;;;;;;;;;5039274;28;20043;-80
2023/10/16 02:50:49;;;;;;;1.50;1.00;;;;;;;;;;5034257;28;20503;-81
2023/10/16 02:53:22;;;;;;;2.67;1.00;;;;;;;;;;5030710;28;20037;-81
2023/10/16 02:55:58;;;;;;;4.55;1.10;;;;;;;;;;5015097;28;20029;-81
2023/10/16 02:58:26;;;;;;;2.75;1.15;;;;;;;;;;5041188;28;20260;-81
2023/10/16 03:01:06;;;;;;;1.55;1.00;;;;;;;;;;5036668;28;20053;-81
2023/10/16 03:03:32;;;;;;;1.50;0.80;;;;;;;;;;5030512;28;20124;-81
2023/10/16 03:05:59;;;;;;;1.65;0.90;;;;;;;;;;5029722;28;20041;-81
2023/10/16 03:08:31;;;;;;;1.95;1.05;;;;;;;;;;5039535;28;20047;-82
2023/10/16 03:11:05;;;;;;;1.35;0.90;;;;;;;;;;5035336;28;20088;-81
2023/10/16 03:13:35;;;;;;;1.05;0.80;;;;;;;;;;5028567;28;20037;-81
2023/10/16 03:16:18;;;;;;;1.90;1.00;;;;;;;;;;5027401;28;20092;-81
2023/10/16 03:18:47;;;;;;;1.52;0.90;;;;;;;;;;5038514;28;20172;-81
2023/10/16 03:23:47;;;;;;;2.05;1.00;;;;;;;;;;5032368;28;20046;-81
2023/10/16 03:28:46;;;;;;;1.27;0.80;;;;;;;;;;5040399;28;20371;-81
2023/10/16 03:31:12;;;;;;;0.80;0.70;;;;;;;;;;5036170;28;20034;-81
2023/10/16 03:33:38;;;;;;;3.90;0.80;;;;;;;;;;5030996;28;20040;-81
2023/10/16 03:36:04;;;;;;;1.50;1.00;;;;;;;;;;5027253;28;20062;-81
2023/10/16 03:38:36;;;;;;;1.90;0.90;;;;;;;;;;5029328;28;20506;-83
2023/10/16 03:41:05;;;;;;;2.17;1.00;;;;;;;;;;5037018;28;20037;-81
2023/10/16 03:43:34;;;;;;;4.30;1.30;;;;;;;;;;5031817;28;20131;-81
2023/10/16 03:46:02;;;;;;;3.33;1.35;;;;;;;;;;5028357;28;20061;-81
2023/10/16 03:48:28;;;;;;;1.92;1.00;;;;;;;;;;5032542;28;20041;-81
2023/10/16 03:50:56;;;;;;;1.75;1.00;;;;;;;;;;5032837;28;20398;-81
2023/10/16 03:53:21;;;;;;;1.42;1.08;;;;;;;;;;5036708;28;20034;-81
2023/10/16 03:55:48;;;;;;;3.95;1.83;;;;;;;;;;5031744;28;20022;-81
2023/10/16 03:58:14;;;;;;;7.60;4.15;;;;;;;;;;5027850;28;20037;-81
2023/10/16 04:00:58;;;;;;;2.67;1.40;;;;;;;;;;5041373;28;20046;-81
2023/10/16 04:03:26;;;;;;;1.80;1.08;;;;;;;;;;5036282;28;20049;-81
2023/10/16 04:05:53;;;;;;;2.67;1.02;;;;;;;;;;5031112;28;20026;-81
2023/10/16 04:08:26;;;;;;;2.60;1.00;;;;;;;;;;5026814;28;20080;-81
2023/10/16 04:10:56;;;;;;;3.55;1.50;;;;;;;;;;5040771;28;20037;-80
2023/10/16 04:13:31;;;;;;;3.03;1.30;;;;;;;;;;5048024;22;20040;-84
2023/10/16 04:16:09;;;;;;;2.00;1.17;;;;;;;;;;5007920;28;20042;-84
2023/10/16 04:18:39;;;;;;;2.45;1.23;;;;;;;;;;4998131;28;20034;-86
2023/10/16 04:31:45;;;;;;;2.72;1.30;;;;;;;;;;5012163;28;20042;-81
2023/10/16 04:34:24;;;;;;;2.33;1.30;;;;;;;;;;5010144;28;20499;-83
2023/10/16 04:47:48;;;;;;;2.85;1.15;;;;;;;;;;5003500;28;20038;-83
2023/10/16 04:50:15;;;;;;;;;;;;;;;;;;4997640;28;20042;-80
2023/10/16 05:13:17;;;;;;;2.42;1.00;;;;;;;;;;5005648;28;20042;-84
2023/10/16 05:17:21;;;;;;;2.00;1.10;;;;;;;;;;5015752;28;20069;-84
2023/10/16 05:19:53;;;;;;;1.50;0.90;;;;;;;;;;5007207;28;20135;-83
2023/10/16 06:14:34;;;;;;;1.92;1.30;;;;;;;;;;5000097;28;19914;-83
2023/10/16 06:17:00;;;;;;;2.65;1.45;;;;;;;;;;5010717;28;20080;-84
2023/10/16 06:19:26;;;;;;;3.67;1.50;;;;;;;;;;4992132;28;20034;-84
2023/10/16 06:22:06;;;;;;;2.65;1.42;;;;;;;;;;5002168;28;20497;-84
2023/10/16 06:24:44;;;;;;;4.85;1.35;;;;;;;;;;4995400;28;20074;-84
2023/10/16 06:27:10;;;;;;;2.80;1.55;;;;;;;;;;5011700;28;20117;-83
2023/10/16 06:29:41;;;;;;;4.72;1.52;;;;;;;;;;5008448;28;20033;-85
2023/10/16 06:32:18;;;;;;;3.35;1.40;;;;;;;;;;5004879;28;20036;-83
2023/10/16 06:35:16;;;;;;;2.60;1.70;;;;;;;;;;5000258;28;20038;-83
2023/10/16 06:37:38;;;;;;;3.22;1.70;;;;;;;;;;5003240;28;20042;-86
2023/10/16 06:40:46;;;;;;;4.15;1.63;;;;;;;;;;5011422;28;20456;-84
2023/10/16 06:43:13;;;;;;;5.65;1.63;;;;;;;;;;5004739;28;20050;-82
2023/10/16 06:45:42;;;;;;;3.00;1.40;;;;;;;;;;4997546;28;20121;-82
2023/10/16 06:48:15;;;;;;;5.05;1.40;;;;;;;;;;5014973;28;20034;-82
2023/10/16 06:50:54;;;;;;;3.17;1.50;;;;;;;;;;5005127;28;20049;-83
2023/10/16 06:53:23;;;;;;;3.08;1.55;;;;;;;;;;5017519;28;20540;-88
2023/10/16 06:55:51;;;;;;;2.58;1.40;;;;;;;;;;4997672;28;20035;-84
2023/10/16 06:58:18;;;;;;;2.08;1.27;;;;;;;;;;5013579;28;20038;-82
2023/10/16 07:00:47;;;;;;;2.63;1.40;;;;;;;;;;5007621;28;20587;-84
2023/10/16 07:03:13;;;;;;;3.15;1.30;;;;;;;;;;4996124;28;20542;-82
2023/10/16 07:05:42;;;;;;;4.25;1.23;;;;;;;;;;5001066;28;20106;-83
2023/10/16 07:08:16;;;;;;;1.95;1.10;;;;;;;;;;5006025;28;20084;-83
2023/10/16 07:10:49;;;;;;;2.38;1.02;;;;;;;;;;5007604;28;20040;-83
2023/10/16 07:13:26;;;;;;;2.03;1.27;;;;;;;;;;4999588;28;20042;-82
2023/10/16 07:15:56;;;;;;;2.45;1.35;;;;;;;;;;4997667;28;20281;-82
2023/10/16 07:18:24;;;;;;;2.95;1.00;;;;;;;;;;5002337;28;20497;-84
2023/10/16 07:21:07;;;;;;;2.28;1.08;;;;;;;;;;5006297;28;20045;-83
2023/10/16 07:23:35;;;;;;;2.70;1.13;;;;;;;;;;4996652;28;20038;-83
2023/10/16 07:26:04;;;;;;;3.47;1.52;;;;;;;;;;4998700;28;20125;-81
2023/10/16 07:28:33;;;;;;;3.92;1.80;;;;;;;;;;5001205;28;20038;-81
2023/10/16 07:30:59;;;;;;;3.17;1.80;;;;;;;;;;5010079;28;20053;-81
2023/10/16 07:33:26;;;;;;;4.80;1.50;;;;;;;;;;5006689;28;20053;-81
2023/10/16 07:35:53;;;;;;;4.45;1.83;;;;;;;;;;5001907;28;20082;-80
2023/10/16 07:38:23;;;;;;;1.88;1.15;;;;;;;;;;5000356;28;20076;-82
2023/10/16 07:40:57;;;;;;;4.20;1.50;;;;;;;;;;5011735;28;20496;-82
2023/10/16 07:43:28;;;;;;;4.18;1.60;;;;;;;;;;5004478;28;20099;-81
2023/10/16 07:48:44;;;;;;;3.42;2.00;;;;;;;;;;4997088;28;20062;-83
2023/10/16 07:51:17;;;;;;;2.35;1.27;;;;;;;;;;5010182;28;20086;-82
2023/10/16 07:53:42;;;;;;;2.97;1.25;;;;;;;;;;5007617;28;20036;-81
2023/10/16 07:59:06;;;;;;;3.97;1.23;;;;;;;;;;5000474;28;20041;-84
2023/10/16 08:01:36;;;;;;;3.28;1.20;;;;;;;;;;4992674;28;20076;-81
2023/10/16 08:04:06;;;;;;;3.65;1.30;;;;;;;;;;4992051;28;20030;-84
2023/10/16 08:06:39;;;;;;;5.03;1.30;;;;;;;;;;4986921;28;20038;-81
2023/10/16 08:11:59;;;;;;;2.85;1.40;;;;;;;;;;5016838;28;20057;-82
2023/10/16 08:14:26;;;;;;;3.85;1.17;;;;;;;;;;4993800;28;20047;-82
2023/10/16 08:16:58;;;;;;;4.20;1.30;;;;;;;;;;4986133;28;20022;-81
2023/10/16 08:19:31;;;;;;;3.55;1.30;;;;;;;;;;5012682;28;20030;-82
2023/10/16 08:22:03;;;;;;;3.33;1.30;;;;;;;;;;5012584;28;20038;-82
2023/10/16 08:24:29;;;;;;;2.28;1.20;;;;;;;;;;5005499;28;20031;-82
2023/10/16 08:27:10;;;;;;;3.13;1.33;;;;;;;;;;5004834;28;20038;-83
2023/10/16 08:29:37;;;;;;;2.75;1.10;;;;;;;;;;5005413;28;20039;-85
2023/10/16 08:34:47;;;;;;;1.70;1.00;;;;;;;;;;5013644;28;20037;-85
2023/10/16 08:37:13;;;;;;;4.22;1.10;;;;;;;;;;5008495;28;20110;-85
2023/10/16 08:39:47;;;;;;;2.72;1.20;;;;;;;;;;5003615;28;20038;-84
2023/10/16 08:44:45;;;;;;;2.35;1.10;;;;;;;;;;5010279;28;20038;-85
2023/10/16 08:47:16;;;;;;;2.03;1.08;;;;;;;;;;5006453;28;20061;-84
2023/10/16 08:49:52;;;;;;;2.60;1.30;;;;;;;;;;5003377;28;20519;-85
2023/10/16 08:52:20;;;;;;;2.30;1.00;;;;;;;;;;5015302;28;20040;-86
2023/10/16 08:57:19;;;;;;;1.60;1.05;;;;;;;;;;5006659;28;20038;-84
2023/10/16 08:59:46;;;;;;;4.60;1.30;;;;;;;;;;5004760;28;20062;-86
2023/10/16 09:02:13;;;;;;;3.58;1.50;;;;;;;;;;5003224;28;20030;-85
2023/10/16 09:04:41;;;;;;;2.60;1.20;;;;;;;;;;5016168;28;20030;-87
2023/10/16 09:07:07;;;;;;;2.30;1.10;;;;;;;;;;5007524;28;20411;-84
2023/10/16 09:09:33;;;;;;;4.18;1.67;;;;;;;;;;5001640;28;20094;-87
2023/10/16 09:12:04;;;;;;;5.13;1.30;;;;;;;;;;4997599;28;20041;-86
2023/10/16 09:14:30;;;;;;;3.58;1.20;;;;;;;;;;5013853;28;20072;-85
2023/10/16 09:16:59;;;;;;;1.92;1.10;;;;;;;;;;5006244;28;20423;-87
2023/10/16 09:19:33;;;;;;;4.00;1.30;;;;;;;;;;5004183;28;20096;-86
2023/10/16 09:21:59;;;;;;;2.78;1.30;;;;;;;;;;4996901;28;20031;-87
2023/10/16 09:24:24;;;;;;;3.05;1.23;;;;;;;;;;5000218;28;20030;-85
2023/10/16 09:26:54;;;;;;;1.60;1.00;;;;;;;;;;5010598;28;20046;-86
2023/10/16 09:29:27;;;;;;;4.28;1.42;;;;;;;;;;4989961;28;20038;-85
2023/10/16 09:31:53;;;;;;;2.47;1.20;;;;;;;;;;5008783;28;20041;-87
2023/10/16 09:34:25;;;;;;;4.05;1.20;;;;;;;;;;4994804;28;20042;-84
2023/10/16 09:39:49;;;;;;;4.15;1.55;;;;;;;;;;5002888;28;20041;-84
2023/10/16 09:42:15;;;;;;;3.97;2.30;;;;;;;;;;4996996;28;20125;-85
2023/10/16 09:44:44;;;;;;;2.88;1.40;;;;;;;;;;5015571;28;20068;-85
2023/10/16 09:47:25;;;;;;;3.17;1.30;;;;;;;;;;5021417;28;20030;-86
2023/10/16 09:50:01;;;;;;;2.40;1.05;;;;;;;;;;5016014;28;20403;-84
2023/10/16 09:52:31;;;;;;;3.47;1.33;;;;;;;;;;5005680;28;20192;-86
2023/10/16 09:54:59;;;;;;;2.45;1.20;;;;;;;;;;5008669;28;20048;-86
2023/10/16 09:57:29;;;;;;;5.93;1.55;;;;;;;;;;4997966;28;20041;-86
2023/10/16 09:59:56;;;;;;;5.50;1.50;;;;;;;;;;5007345;28;20050;-84
2023/10/16 10:02:27;;;;;;;5.90;1.40;;;;;;;;;;5003431;28;20106;-84
2023/10/16 10:05:03;;;;;;;2.63;1.30;;;;;;;;;;5016442;28;20037;-86
2023/10/16 10:07:34;;;;;;;3.60;1.40;;;;;;;;;;5012154;28;20144;-83
2023/10/16 10:10:39;;;;;;;3.60;1.45;;;;;;;;;;5002014;28;20048;-85
2023/10/16 10:12:51;;;;;;;2.65;1.40;;;;;;;;;;5003270;28;20043;-87
2023/10/16 10:15:33;;;;;;;3.70;1.30;;;;;;;;;;5014535;28;20045;-86
2023/10/16 10:18:30;;;;;;;2.42;1.40;;;;;;;;;;5014347;28;20086;-86
2023/10/16 10:20:48;;;;;;;3.67;1.40;;;;;;;;;;5005728;28;20499;-84
2023/10/16 10:23:15;;;;;;;2.88;1.27;;;;;;;;;;5001081;28;20090;-85
2023/10/16 10:25:41;;;;;;;2.70;1.20;;;;;;;;;;5004528;28;20060;-87
2023/10/16 10:28:32;;;;;;;6.25;1.40;;;;;;;;;;5010478;28;20089;-85
2023/10/16 10:31:07;;;;;;;3.50;1.40;;;;;;;;;;5025392;28;20042;-85
2023/10/16 10:33:51;;;;;;;3.58;1.30;;;;;;;;;;5014355;28;20430;-84
2023/10/16 10:36:34;;;;;;;2.47;1.38;;;;;;;;;;5012525;28;20140;-84
2023/10/16 10:39:22;;;;;;;2.72;1.40;;;;;;;;;;5010154;28;20028;-87
2023/10/16 10:41:55;;;;;;;1.95;1.23;;;;;;;;;;5006003;28;20049;-84
2023/10/16 10:44:52;;;;;;;1.90;1.17;;;;;;;;;;5002481;28;20031;-86
2023/10/16 10:47:17;;;;;;;2.08;1.10;;;;;;;;;;5002216;28;20420;-84
2023/10/16 10:49:43;;;;;;;3.60;1.20;;;;;;;;;;5012395;28;20053;-84
2023/10/16 10:52:12;;;;;;;2.95;1.15;;;;;;;;;;5013818;28;20040;-83
2023/10/16 10:54:43;;;;;;;3.80;1.30;;;;;;;;;;5001718;28;20053;-86
2023/10/16 10:57:20;;;;;;;2.05;1.30;;;;;;;;;;4980156;28;20031;-83
2023/10/16 10:59:55;;;;;;;4.05;1.20;;;;;;;;;;5010753;28;20176;-83
2023/10/16 11:05:08;;;;;;;3.58;1.40;;;;;;;;;;5011272;28;20054;-85
2023/10/16 11:07:45;;;;;;;4.60;1.20;;;;;;;;;;4998788;28;20038;-84
2023/10/16 11:10:13;;;;;;;3.53;1.30;;;;;;;;;;5014653;28;20048;-85
2023/10/16 11:12:38;;;;;;;4.28;1.60;;;;;;;;;;5012255;28;20030;-85
2023/10/16 11:15:10;;;;;;;4.13;1.30;;;;;;;;;;5011399;28;20116;-85
2023/10/16 11:17:40;;;;;;;2.72;1.17;;;;;;;;;;4998741;28;20085;-84
2023/10/16 11:22:45;;;;;;;5.75;1.40;;;;;;;;;;5008221;28;20038;-83
2023/10/16 11:25:14;;;;;;;3.25;1.40;;;;;;;;;;5012551;28;20039;-83
2023/10/16 11:27:44;;;;;;;3.33;1.15;;;;;;;;;;4996585;28;20060;-85
2023/10/16 11:30:13;;;;;;;4.22;1.38;;;;;;;;;;5010137;28;20034;-85
2023/10/16 11:32:45;;;;;;;2.00;1.10;;;;;;;;;;5007668;28;20038;-85
2023/10/16 11:35:17;;;;;;;3.28;1.42;;;;;;;;;;5001346;28;20034;-84
2023/10/16 11:37:50;;;;;;;3.35;1.20;;;;;;;;;;4994094;28;20733;-84
2023/10/16 11:40:19;;;;;;;2.72;1.52;;;;;;;;;;5006289;28;20041;-85
2023/10/16 11:42:45;;;;;;;2.58;1.20;;;;;;;;;;5013481;28;20065;-85
2023/10/16 11:45:18;;;;;;;2.83;1.40;;;;;;;;;;5011217;28;20157;-85
2023/10/16 11:47:44;;;;;;;2.53;1.50;;;;;;;;;;5005755;28;20041;-85
2023/10/16 11:50:17;;;;;;;2.00;1.20;;;;;;;;;;5002040;28;20044;-86
2023/10/16 11:52:43;;;;;;;2.35;1.20;;;;;;;;;;5022116;28;20033;-85
2023/10/16 11:55:09;;;;;;;2.72;1.30;;;;;;;;;;5011298;28;20102;-86
2023/10/16 11:57:34;;;;;;;4.25;1.40;;;;;;;;;;5004422;28;20654;-86
2023/10/16 12:00:18;;;;;;;3.60;1.20;;;;;;;;;;4993619;28;20030;-84
2023/10/16 12:02:46;;;;;;;1.27;1.00;;;;;;;;;;5012877;28;20484;-84
2023/10/16 12:05:12;;;;;;;2.55;1.25;;;;;;;;;;4995348;28;20046;-83
2023/10/16 12:07:43;;;;;;;2.58;1.20;;;;;;;;;;5002089;28;20049;-86
2023/10/16 12:10:11;;;;;;;1.85;1.00;;;;;;;;;;5009475;28;20424;-86
2023/10/16 12:12:40;;;;;;;3.40;1.10;;;;;;;;;;5013586;28;20038;-85
2023/10/16 12:15:09;;;;;;;2.33;1.10;;;;;;;;;;5005738;28;20021;-84
2023/10/16 12:17:36;;;;;;;2.92;1.20;;;;;;;;;;5001045;28;20038;-85
2023/10/16 12:20:09;;;;;;;4.90;1.30;;;;;;;;;;5002110;28;20096;-87
2023/10/16 12:22:39;;;;;;;4.78;1.40;;;;;;;;;;5016527;28;20096;-85
2023/10/16 12:25:09;;;;;;;3.17;1.20;;;;;;;;;;4993429;28;20392;-84
2023/10/16 12:27:36;;;;;;;3.80;1.33;;;;;;;;;;5006332;28;20041;-84
2023/10/16 12:30:03;;;;;;;28.15;14.02;;;;;;;;;;5001012;28;20069;-84
2023/10/16 12:32:29;;;;;;;13.35;8.18;;;;;;;;;;5006066;28;20112;-84
2023/10/16 12:34:57;;;;;;;4.97;2.50;;;;;;;;;;5013634;28;20523;-83
2023/10/16 12:37:23;;;;;;;3.35;1.80;;;;;;;;;;5007903;28;20034;-86
2023/10/16 12:39:52;;;;;;;9.20;4.00;;;;;;;;;;5006754;28;20038;-88
2023/10/16 12:42:18;;;;;;;3.90;1.98;;;;;;;;;;4991762;28;20057;-84
2023/10/16 12:44:44;;;;;;;4.68;1.67;;;;;;;;;;5013432;28;20503;-86
2023/10/16 12:47:11;;;;;;;5.68;2.20;;;;;;;;;;5010232;28;20722;-86
2023/10/16 12:49:37;;;;;;;3.55;2.10;;;;;;;;;;5006352;28;20057;-85
2023/10/16 12:52:02;;;;;;;3.83;1.90;;;;;;;;;;4998390;28;20559;-85
2023/10/16 12:54:28;;;;;;;3.50;2.15;;;;;;;;;;5012829;28;20132;-86
2023/10/16 12:56:53;;;;;;;4.47;2.10;;;;;;;;;;5010952;28;20034;-85
2023/10/16 12:59:20;;;;;;;4.38;2.30;;;;;;;;;;5005896;28;20065;-84
2023/10/16 13:01:49;;;;;;;12.70;6.00;;;;;;;;;;5000341;28;20050;-85
2023/10/16 13:04:19;;;;;;;4.30;2.30;;;;;;;;;;5010538;28;20030;-86
2023/10/16 13:06:45;;;;;;;38.42;19.90;;;;;;;;;;5009382;28;20132;-85
2023/10/16 13:09:18;;;;;;;4.78;2.75;;;;;;;;;;5004634;28;20596;-84
2023/10/16 13:11:45;;;;;;;4.97;3.03;;;;;;;;;;4995899;28;20134;-84
2023/10/16 13:14:14;;;;;;;4.95;2.97;;;;;;;;;;5011955;28;20046;-84
2023/10/16 13:16:40;;;;;;;16.95;10.32;;;;;;;;;;4987476;28;20066;-85
2023/10/16 13:19:09;;;;;;;5.35;3.10;;;;;;;;;;5002239;28;20062;-86
2023/10/16 13:21:38;;;;;;;5.55;3.00;;;;;;;;;;4995090;28;20118;-85
2023/10/16 13:24:16;;;;;;;3.72;2.50;;;;;;;;;;5006321;28;20057;-85
2023/10/16 13:26:42;;;;;;;4.72;3.20;;;;;;;;;;5013477;28;20033;-86
2023/10/16 13:29:13;;;;;;;4.82;3.00;;;;;;;;;;5000668;28;20025;-85
2023/10/16 13:31:45;;;;;;;8.65;3.20;;;;;;;;;;5005834;28;20037;-84
2023/10/16 13:34:13;;;;;;;5.05;3.15;;;;;;;;;;5013722;28;20451;-85
2023/10/16 13:36:56;;;;;;;4.63;2.90;;;;;;;;;;5013750;28;20077;-86
2023/10/16 13:39:25;;;;;;;5.85;3.13;;;;;;;;;;5021236;28;20042;-86
2023/10/16 13:41:50;;;;;;;6.65;3.30;;;;;;;;;;5002210;28;20374;-86
2023/10/16 13:44:24;;;;;;;4.57;3.50;;;;;;;;;;4994906;28;20033;-86
2023/10/16 13:46:49;;;;;;;;;;;;;;;;;;5013310;28;20034;-86
2023/10/16 13:49:16;;;;;;;4.80;3.65;;;;;;;;;;5010639;28;19925;-86
2023/10/16 13:51:45;;;;;;;6.07;3.40;;;;;;;;;;4998933;28;20453;-87
2023/10/16 13:54:12;;;;;;;4.53;3.05;;;;;;;;;;4999019;28;20034;-84
2023/10/16 13:56:42;;;;;;;5.60;3.50;;;;;;;;;;5016038;28;20125;-87
2023/10/16 13:59:08;;;;;;;6.63;3.30;;;;;;;;;;5006126;28;20046;-86
2023/10/16 14:01:42;;;;;;;5.82;3.20;;;;;;;;;;5009171;28;20772;-85
2023/10/16 14:04:17;;;;;;;4.95;3.17;;;;;;;;;;5011829;28;20030;-85
2023/10/16 14:06:53;;;;;;;5.57;3.30;;;;;;;;;;5023760;28;20041;-86
2023/10/16 14:09:28;;;;;;;6.45;3.05;;;;;;;;;;5027664;28;20706;-86
2023/10/16 14:11:58;;;;;;;5.03;3.25;;;;;;;;;;4987988;28;20072;-86
2023/10/16 14:14:26;;;;;;;5.63;3.10;;;;;;;;;;5002852;28;20046;-86
2023/10/16 14:17:02;;;;;;;6.65;4.03;;;;;;;;;;5004636;28;20030;-86
2023/10/16 14:19:29;;;;;;;5.47;3.17;;;;;;;;;;5009097;28;20050;-84
2023/10/16 14:21:55;;;;;;;18.17;11.73;;;;;;;;;;5001917;28;20042;-84
2023/10/16 14:24:26;;;;;;;26.52;13.85;;;;;;;;;;5082681;27;1421249;-86
2023/10/16 14:26:57;;;;;;;11.05;5.57;;;;;;;;;;5108228;28;20061;-85
2023/10/16 14:29:24;;;;;;;12.07;6.20;;;;;;;;;;5094062;28;20119;-84
2023/10/16 14:31:51;;;;;;;10.07;4.90;;;;;;;;;;5097135;28;20036;-85
2023/10/16 14:34:22;;;;;;;11.05;6.22;;;;;;;;;;5090656;28;20016;-87
2023/10/16 14:36:55;;;;;;;5.60;3.35;;;;;;;;;;5095116;28;20036;-85
2023/10/16 14:39:30;;;;;;;9.25;3.90;;;;;;;;;;5105769;28;20102;-84
2023/10/16 14:42:03;;;;;;;5.30;3.33;;;;;;;;;;5103976;28;20047;-84
2023/10/16 14:44:29;;;;;;;25.43;12.77;;;;;;;;;;5099158;28;20430;-85
2023/10/16 14:46:57;;;;;;;7.50;4.10;;;;;;;;;;5093614;28;20032;-85
2023/10/16 14:49:26;;;;;;;6.10;4.05;;;;;;;;;;5092539;28;20067;-85
2023/10/16 14:51:53;;;;;;;6.47;3.85;;;;;;;;;;5114942;28;20027;-83
2023/10/16 14:54:21;;;;;;;5.85;3.70;;;;;;;;;;5097096;28;20474;-84
2023/10/16 14:56:49;;;;;;;8.23;4.28;;;;;;;;;;5093146;28;20032;-84
2023/10/16 14:59:25;;;;;;;6.35;3.72;;;;;;;;;;5097661;28;20035;-86
2023/10/16 15:01:50;;;;;;;8.73;4.05;;;;;;;;;;5101217;28;20478;-84
2023/10/16 15:04:17;;;;;;;5.82;3.92;;;;;;;;;;5106428;28;20051;-86
2023/10/16 15:06:44;;;;;;;8.68;4.30;;;;;;;;;;5105119;28;20110;-87
2023/10/16 15:09:15;;;;;;;6.20;4.25;;;;;;;;;;5123593;28;20202;-84
2023/10/16 15:11:41;;;;;;;5.97;3.60;;;;;;;;;;5103203;28;20128;-84
2023/10/16 15:14:07;;;;;;;5.47;3.58;;;;;;;;;;5101124;28;20063;-85
2023/10/16 15:16:32;;;;;;;9.48;3.85;;;;;;;;;;5105929;28;20111;-83
2023/10/16 15:18:58;;;;;;;6.28;3.70;;;;;;;;;;5115437;28;20028;-85
2023/10/16 15:21:24;;;;;;;7.97;4.20;;;;;;;;;;5124849;28;20024;-85
2023/10/16 15:23:50;;;;;;;6.03;3.80;;;;;;;;;;5103424;28;20040;-84
2023/10/16 15:26:15;;;;;;;8.23;4.72;;;;;;;;;;5097527;28;20133;-84
2023/10/16 15:28:41;;;;;;;12.65;6.63;;;;;;;;;;5093775;28;20037;-85
2023/10/16 15:31:06;;;;;;;17.85;10.48;;;;;;;;;;5091815;28;20125;-85
2023/10/16 15:33:32;;;;;;;25.95;13.60;;;;;;;;;;5079243;28;20034;-86
2023/10/16 15:35:59;;;;;;;10.18;6.60;;;;;;;;;;5089835;28;20044;-86
2023/10/16 15:38:28;;;;;;;6.20;4.30;;;;;;;;;;5094248;28;20478;-85
2023/10/16 15:40:55;;;;;;;8.73;4.80;;;;;;;;;;5095039;28;20040;-85
2023/10/16 15:43:21;;;;;;;8.02;5.05;;;;;;;;;;5091104;28;20137;-84
2023/10/16 15:45:47;;;;;;;8.52;4.43;;;;;;;;;;5085626;28;20055;-84
2023/10/16 15:48:13;;;;;;;6.13;4.20;;;;;;;;;;5081547;28;20116;-86
2023/10/16 15:50:40;;;;;;;6.95;4.75;;;;;;;;;;5084271;28;20024;-86
2023/10/16 15:53:07;;;;;;;8.48;5.13;;;;;;;;;;5093704;28;20070;-85
2023/10/16 15:55:34;;;;;;;5.65;3.92;;;;;;;;;;5088218;28;20035;-85
2023/10/16 15:58:00;;;;;;;4.45;3.75;;;;;;;;;;5083080;28;20028;-84
2023/10/16 16:00:26;;;;;;;7.47;3.78;;;;;;;;;;5093953;28;20047;-89
2023/10/16 16:03:01;;;;;;;6.45;4.10;;;;;;;;;;5094964;28;20478;-88
2023/10/16 16:05:30;;;;;;;68.50;26.10;;;;;;;;;;5086763;28;20040;-85
2023/10/16 16:07:56;;;;;;;9.70;4.90;;;;;;;;;;5087763;28;20031;-82
2023/10/16 16:10:26;;;;;;;8.82;4.78;;;;;;;;;;5085258;28;20036;-85
2023/10/16 16:12:52;;;;;;;42.08;15.55;;;;;;;;;;5089162;28;20489;-85
2023/10/16 16:15:21;;;;;;;10.82;5.80;;;;;;;;;;5090965;28;20038;-85
2023/10/16 16:17:47;;;;;;;7.63;4.68;;;;;;;;;;5087383;28;20524;-84
2023/10/16 16:20:16;;;;;;;7.43;4.53;;;;;;;;;;5082217;28;20040;-85
2023/10/16 16:22:46;;;;;;;6.28;3.83;;;;;;;;;;5090912;28;20405;-85
2023/10/16 16:25:13;;;;;;;5.28;3.70;;;;;;;;;;5103819;28;20037;-84
2023/10/16 16:27:46;;;;;;;7.47;3.65;;;;;;;;;;5088600;28;20041;-85
2023/10/16 16:30:13;;;;;;;5.40;3.30;;;;;;;;;;5092410;28;20115;-85
2023/10/16 16:32:39;;;;;;;5.78;3.60;;;;;;;;;;5085488;28;20066;-85
2023/10/16 16:35:06;;;;;;;5.70;3.00;;;;;;;;;;5091685;28;20032;-85
2023/10/16 16:37:32;;;;;;;4.70;3.30;;;;;;;;;;5089220;28;20024;-84
2023/10/16 16:39:57;;;;;;;6.35;3.40;;;;;;;;;;5068280;28;20057;-85
2023/10/16 16:42:23;;;;;;;7.00;3.60;;;;;;;;;;5081015;28;20123;-86
2023/10/16 16:44:51;;;;;;;7.70;3.28;;;;;;;;;;5093635;22;20526;-80
2023/10/16 16:47:17;;;;;;;5.15;3.25;;;;;;;;;;5045264;28;20064;-82
2023/10/16 16:49:43;;;;;;;5.43;3.20;;;;;;;;;;5046652;28;20095;-82
2023/10/16 16:52:08;;;;;;;6.78;3.63;;;;;;;;;;5060094;28;20037;-81
2023/10/16 16:54:33;;;;;;;7.53;3.90;;;;;;;;;;5037257;28;20817;-78
2023/10/16 16:56:59;;;;;;;7.20;3.55;;;;;;;;;;5041097;28;20060;-81
2023/10/16 16:59:26;;;;;;;4.95;3.08;;;;;;;;;;5028103;28;20029;-81
2023/10/16 17:01:55;;;;;;;7.18;3.95;;;;;;;;;;5021708;28;20510;-83
2023/10/16 17:04:21;;;;;;;9.02;5.40;;;;;;;;;;5025106;28;20116;-84
2023/10/16 17:06:47;;;;;;;7.22;4.90;;;;;;;;;;5030958;28;20080;-80
2023/10/16 17:09:15;;;;;;;31.75;17.33;;;;;;;;;;5027727;28;20037;-84